Time;durP1;ratioP1;P1;durP2;ratioP2;P2;SDS_P1;SDS_P2;PMS_P1;PMS_P2;Temp;Humidity;BMP_temperature;BMP_pressure;BME280_temperature;BME280_humidity;BME280_pressure;Samples;Min_cycle;Max_cycle;Signal;HPM_P1;HPM_P2
2023/12/27 00:02:08;;;;;;;552.47;519.70;;;4.70;99.90;;;;;;4974055;28;20456;-76
2023/12/27 00:04:35;;;;;;;584.90;549.80;;;4.60;99.90;;;;;;4971984;28;20458;-76
2023/12/27 00:07:01;;;;;;;606.77;568.97;;;4.50;99.90;;;;;;4974487;28;20464;-76
2023/12/27 00:09:30;;;;;;;643.97;603.67;;;4.50;99.90;;;;;;4974637;28;20541;-76
2023/12/27 00:11:56;;;;;;;656.37;616.57;;;4.50;99.90;;;;;;4974067;28;20534;-76
2023/12/27 00:14:23;;;;;;;684.47;641.57;;;4.40;99.90;;;;;;4972176;28;20458;-76
2023/12/27 00:16:50;;;;;;;704.10;658.87;;;4.40;99.90;;;;;;4974178;28;20489;-76
2023/12/27 00:19:17;;;;;;;743.80;695.60;;;4.30;99.90;;;;;;4974573;28;20457;-76
2023/12/27 00:21:44;;;;;;;769.00;719.50;;;4.10;99.90;;;;;;4974313;28;20474;-76
2023/12/27 00:24:10;;;;;;;787.27;736.90;;;4.00;99.90;;;;;;4971871;28;20562;-76
2023/12/27 00:26:39;;;;;;;805.03;752.70;;;3.90;99.90;;;;;;4973624;28;20450;-76
2023/12/27 00:29:05;;;;;;;795.40;743.50;;;3.80;99.90;;;;;;4978081;28;20457;-76
2023/12/27 00:31:32;;;;;;;848.63;793.23;;;3.70;99.90;;;;;;4977982;28;20457;-76
2023/12/27 00:33:59;;;;;;;876.73;817.07;;;3.70;99.90;;;;;;4975539;28;20459;-76
2023/12/27 00:36:29;;;;;;;890.63;829.00;;;3.60;99.90;;;;;;4977072;28;20568;-76
2023/12/27 00:38:56;;;;;;;908.60;845.33;;;3.60;99.90;;;;;;4977657;28;20593;-76
2023/12/27 00:41:23;;;;;;;916.70;852.70;;;3.60;99.90;;;;;;4977917;28;20475;-76
2023/12/27 00:43:51;;;;;;;920.53;856.10;;;3.60;99.90;;;;;;4975499;28;20465;-76
2023/12/27 00:46:18;;;;;;;931.60;865.43;;;3.50;99.90;;;;;;4977116;28;20899;-76
2023/12/27 00:48:44;;;;;;;938.83;870.97;;;3.50;99.90;;;;;;4977745;28;20456;-76
2023/12/27 00:51:19;;;;;;;953.60;884.43;;;3.50;99.90;;;;;;4977706;28;20460;-76
2023/12/27 00:53:45;;;;;;;954.47;885.20;;;3.60;99.90;;;;;;4975117;28;20442;-76
2023/12/27 00:56:12;;;;;;;951.23;881.43;;;3.60;99.90;;;;;;4976410;28;20476;-76
2023/12/27 00:58:39;;;;;;;946.73;878.10;;;3.60;99.90;;;;;;4977274;28;20461;-76
2023/12/27 01:01:07;;;;;;;942.73;875.33;;;3.60;99.90;;;;;;4977500;28;20451;-76
2023/12/27 01:03:34;;;;;;;944.43;875.90;;;3.50;99.90;;;;;;4975555;28;20477;-76
2023/12/27 01:06:02;;;;;;;947.40;878.80;;;3.50;99.90;;;;;;4975811;28;20945;-76
2023/12/27 01:08:28;;;;;;;948.20;878.00;;;3.50;99.90;;;;;;4977546;28;20460;-76
2023/12/27 01:10:55;;;;;;;963.97;892.87;;;3.50;99.90;;;;;;4977383;28;20452;-76
2023/12/27 01:13:22;;;;;;;955.43;884.93;;;3.50;99.90;;;;;;4975521;28;20467;-76
2023/12/27 01:15:49;;;;;;;963.13;892.60;;;3.40;99.90;;;;;;4975465;28;20471;-76
2023/12/27 01:18:17;;;;;;;954.30;884.70;;;3.40;99.90;;;;;;4977255;28;20562;-76
2023/12/27 01:20:44;;;;;;;966.30;895.93;;;3.40;99.90;;;;;;4977753;28;20459;-76
2023/12/27 01:23:10;;;;;;;958.40;887.73;;;3.40;99.90;;;;;;4975529;28;20460;-76
2023/12/27 01:25:40;;;;;;;958.77;885.87;;;3.40;99.90;;;;;;4975494;28;20807;-76
2023/12/27 01:28:07;;;;;;;969.23;895.90;;;3.40;99.90;;;;;;4977055;28;20453;-76
2023/12/27 01:30:34;;;;;;;971.77;897.13;;;3.50;99.90;;;;;;4977026;28;20458;-76
2023/12/27 01:33:01;;;;;;;974.33;900.33;;;3.50;99.90;;;;;;4975745;28;20454;-76
2023/12/27 01:35:31;;;;;;;970.80;897.50;;;3.50;99.90;;;;;;4974984;28;20460;-76
2023/12/27 01:37:57;;;;;;;965.07;893.00;;;3.50;99.90;;;;;;4976552;28;21012;-76
2023/12/27 01:40:24;;;;;;;960.27;887.50;;;3.50;99.90;;;;;;4976601;28;20508;-76
2023/12/27 01:42:51;;;;;;;957.83;884.70;;;3.50;99.90;;;;;;4975625;28;20452;-76
2023/12/27 01:45:18;;;;;;;964.97;891.37;;;3.30;99.90;;;;;;4974720;28;20812;-76
2023/12/27 01:47:46;;;;;;;961.43;887.97;;;3.30;99.90;;;;;;4976686;28;20454;-76
2023/12/27 01:50:13;;;;;;;965.93;892.07;;;3.20;99.90;;;;;;4976661;28;20477;-76
2023/12/27 01:52:42;;;;;;;962.33;890.10;;;3.10;99.90;;;;;;4975396;28;20452;-76
2023/12/27 01:55:11;;;;;;;967.87;895.90;;;3.00;99.90;;;;;;4974512;28;20452;-76
2023/12/27 01:57:39;;;;;;;970.10;897.50;;;2.90;99.90;;;;;;4976240;28;20912;-76
2023/12/27 02:00:07;;;;;;;973.43;900.50;;;2.90;99.90;;;;;;4976142;28;20453;-76
2023/12/27 02:02:34;;;;;;;977.60;904.00;;;2.80;99.90;;;;;;4975065;28;20459;-76
2023/12/27 02:05:01;;;;;;;980.50;906.00;;;2.80;99.90;;;;;;4974105;28;20459;-76
2023/12/27 02:07:28;;;;;;;998.13;918.37;;;2.80;99.90;;;;;;4976309;28;20447;-76
2023/12/27 02:09:56;;;;;;;1009.10;928.57;;;2.70;99.90;;;;;;4976307;28;20457;-76
2023/12/27 02:12:27;;;;;;;1014.03;930.27;;;2.80;99.90;;;;;;4975472;28;20818;-76
2023/12/27 02:14:54;;;;;;;1034.70;949.50;;;2.80;99.90;;;;;;4973478;28;20456;-76
2023/12/27 02:17:22;;;;;;;1029.40;943.10;;;2.80;99.90;;;;;;4976062;28;20492;-79
2023/12/27 02:19:50;;;;;;;1036.03;949.53;;;2.80;99.90;;;;;;4976119;28;20503;-79
2023/12/27 02:22:20;;;;;;;1034.13;946.97;;;2.80;99.90;;;;;;4975472;28;20479;-79
2023/12/27 02:24:49;;;;;;;1038.70;950.60;;;2.90;99.90;;;;;;4973849;28;20512;-80
2023/12/27 02:27:16;;;;;;;1036.00;947.83;;;3.00;99.90;;;;;;4975895;28;20451;-80
2023/12/27 02:29:43;;;;;;;1035.10;947.00;;;3.10;99.90;;;;;;4975734;28;20462;-79
2023/12/27 02:32:10;;;;;;;1036.77;947.17;;;3.00;99.90;;;;;;4975031;28;20455;-79
2023/12/27 02:34:37;;;;;;;1036.67;947.07;;;2.90;99.90;;;;;;4973698;28;20461;-79
2023/12/27 02:37:04;;;;;;;1023.77;934.20;;;3.00;99.90;;;;;;4975679;28;20476;-79
2023/12/27 02:39:31;;;;;;;1020.40;930.70;;;3.00;99.90;;;;;;4975424;28;20457;-80
2023/12/27 02:41:59;;;;;;;1032.40;941.87;;;3.00;99.90;;;;;;4975150;28;20456;-79
2023/12/27 02:44:26;;;;;;;1025.40;935.33;;;3.00;99.90;;;;;;4973058;28;20934;-79
2023/12/27 02:46:53;;;;;;;1026.47;936.57;;;3.00;99.90;;;;;;4975313;28;20512;-79
2023/12/27 02:49:20;;;;;;;1033.83;941.97;;;3.00;99.90;;;;;;4975698;28;20453;-79
2023/12/27 02:51:48;;;;;;;1027.33;937.00;;;3.00;99.90;;;;;;4974853;28;20453;-79
2023/12/27 02:54:15;;;;;;;1041.10;948.93;;;3.10;99.90;;;;;;4972858;28;20453;-79
2023/12/27 02:56:42;;;;;;;1036.50;944.40;;;3.10;99.90;;;;;;4974515;28;20480;-79
2023/12/27 02:59:10;;;;;;;1038.53;946.00;;;3.10;99.90;;;;;;4975205;28;20470;-79
2023/12/27 03:01:37;;;;;;;1043.60;951.53;;;3.10;99.90;;;;;;4975412;28;20452;-76
2023/12/27 03:04:04;;;;;;;1036.43;945.00;;;3.10;99.90;;;;;;4973003;28;20457;-76
2023/12/27 03:06:31;;;;;;;1031.20;939.63;;;3.20;99.90;;;;;;4974858;28;20450;-76
2023/12/27 03:08:57;;;;;;;1047.23;955.73;;;3.10;99.90;;;;;;4975270;28;20486;-76
2023/12/27 03:11:24;;;;;;;1052.40;960.50;;;3.20;99.90;;;;;;4975154;28;20448;-76
2023/12/27 03:13:51;;;;;;;1058.47;966.07;;;3.10;99.90;;;;;;4972694;28;20938;-76
2023/12/27 03:16:20;;;;;;;1055.50;961.80;;;3.00;99.90;;;;;;4974302;28;20453;-76
2023/12/27 03:18:47;;;;;;;1048.73;954.10;;;3.10;99.90;;;;;;4975333;28;20455;-76
2023/12/27 03:21:14;;;;;;;1047.57;953.37;;;3.10;99.90;;;;;;4974736;28;20966;-76
2023/12/27 03:23:41;;;;;;;1043.30;949.60;;;3.20;99.90;;;;;;4972801;28;20462;-76
2023/12/27 03:26:08;;;;;;;1043.27;949.83;;;3.20;99.90;;;;;;4973864;28;20940;-76
2023/12/27 03:28:35;;;;;;;1048.93;954.83;;;3.20;99.90;;;;;;4975031;28;20450;-76
2023/12/27 03:31:02;;;;;;;1048.17;954.20;;;3.20;99.90;;;;;;4975014;28;20541;-76
2023/12/27 03:33:30;;;;;;;1033.47;940.10;;;3.20;99.90;;;;;;4973283;28;20459;-76
2023/12/27 03:35:57;;;;;;;1037.37;945.57;;;3.30;99.90;;;;;;4973416;28;20455;-76
2023/12/27 03:38:24;;;;;;;1024.00;933.10;;;3.40;99.90;;;;;;4974882;28;20492;-76
2023/12/27 03:40:51;;;;;;;1021.47;931.37;;;3.50;99.90;;;;;;4974821;28;20451;-76
2023/12/27 03:43:18;;;;;;;1019.53;929.13;;;3.60;99.90;;;;;;4973259;28;20457;-76
2023/12/27 03:45:49;;;;;;;1026.87;936.27;;;3.60;99.90;;;;;;4973358;28;20458;-76
2023/12/27 03:48:16;;;;;;;1020.13;930.13;;;3.70;99.90;;;;;;4974588;28;20901;-76
2023/12/27 03:50:44;;;;;;;1018.13;929.40;;;3.70;99.90;;;;;;4974812;28;20457;-76
2023/12/27 03:53:11;;;;;;;1008.10;921.80;;;3.80;99.90;;;;;;4973262;28;20464;-76
2023/12/27 03:55:38;;;;;;;1018.77;932.77;;;3.90;99.90;;;;;;4972937;28;20449;-76
2023/12/27 03:58:04;;;;;;;1019.27;934.17;;;3.90;99.90;;;;;;4974422;28;20492;-76
2023/12/27 04:00:31;;;;;;;1011.70;927.20;;;4.00;99.90;;;;;;4974443;28;20451;-76
2023/12/27 04:02:58;;;;;;;992.90;912.00;;;4.10;99.90;;;;;;4975648;28;20964;-76
2023/12/27 04:05:25;;;;;;;992.97;915.00;;;4.20;99.90;;;;;;4976725;28;20459;-76
2023/12/27 04:07:54;;;;;;;993.80;915.77;;;4.30;99.90;;;;;;4978460;28;20448;-76
2023/12/27 04:10:20;;;;;;;988.53;913.47;;;4.30;99.90;;;;;;4978662;28;20465;-76
2023/12/27 04:12:47;;;;;;;980.87;907.17;;;4.30;99.90;;;;;;4977349;28;20465;-76
2023/12/27 04:15:14;;;;;;;968.60;898.03;;;4.30;99.90;;;;;;4976294;28;20962;-76
2023/12/27 04:17:41;;;;;;;958.80;889.70;;;4.30;99.90;;;;;;4978248;28;20478;-76
2023/12/27 04:20:09;;;;;;;967.67;898.90;;;4.30;99.90;;;;;;4977971;28;20454;-76
2023/12/27 04:22:36;;;;;;;957.37;888.87;;;4.30;99.90;;;;;;4977179;28;20830;-76
2023/12/27 04:25:05;;;;;;;960.73;892.80;;;4.40;99.90;;;;;;4975985;28;20460;-76
2023/12/27 04:27:32;;;;;;;963.77;895.87;;;4.40;99.90;;;;;;4977844;28;20542;-76
2023/12/27 04:29:59;;;;;;;966.07;897.30;;;4.40;99.90;;;;;;4978175;28;20542;-76
2023/12/27 04:32:26;;;;;;;964.23;895.53;;;4.50;99.90;;;;;;4976851;28;20461;-76
2023/12/27 04:34:53;;;;;;;961.00;894.30;;;4.50;99.90;;;;;;4975671;28;20822;-76
2023/12/27 04:37:19;;;;;;;953.33;887.03;;;4.60;99.90;;;;;;4977929;28;20493;-76
2023/12/27 04:39:46;;;;;;;938.13;874.10;;;4.60;99.90;;;;;;4977567;28;20544;-76
2023/12/27 04:42:14;;;;;;;913.20;853.60;;;4.70;99.90;;;;;;4977223;28;20815;-76
2023/12/27 04:44:41;;;;;;;914.97;855.50;;;4.70;99.90;;;;;;4975329;28;20460;-76
2023/12/27 04:47:08;;;;;;;874.67;818.53;;;4.70;99.90;;;;;;4977571;28;20447;-76
2023/12/27 04:49:35;;;;;;;855.53;801.30;;;4.80;99.90;;;;;;4977708;28;20451;-76
2023/12/27 04:52:02;;;;;;;849.97;795.47;;;4.80;99.90;;;;;;4976923;28;20452;-76
2023/12/27 04:54:29;;;;;;;849.93;796.40;;;4.90;99.90;;;;;;4975288;28;20455;-76
2023/12/27 04:56:55;;;;;;;830.57;778.90;;;4.90;99.90;;;;;;4977184;28;20860;-76
2023/12/27 04:59:24;;;;;;;830.10;778.70;;;5.00;99.90;;;;;;4977616;28;20443;-76
2023/12/27 05:01:51;;;;;;;836.70;784.40;;;5.00;99.90;;;;;;4976829;28;20452;-76
2023/12/27 05:04:18;;;;;;;824.00;772.77;;;5.00;99.90;;;;;;4975092;28;20457;-75
2023/12/27 05:06:45;;;;;;;825.80;774.80;;;5.00;99.90;;;;;;4977101;28;20851;-76
2023/12/27 05:09:12;;;;;;;825.90;774.83;;;5.10;99.90;;;;;;4977420;28;20463;-76
2023/12/27 05:11:39;;;;;;;822.00;771.40;;;5.10;99.90;;;;;;4977222;28;20462;-76
2023/12/27 05:14:06;;;;;;;813.17;763.37;;;5.20;99.90;;;;;;4973500;28;20458;-76
2023/12/27 05:16:34;;;;;;;809.87;759.57;;;5.20;99.90;;;;;;4976442;28;20464;-74
2023/12/27 05:19:03;;;;;;;806.67;757.43;;;5.20;99.90;;;;;;4977201;28;20484;-74
2023/12/27 05:21:29;;;;;;;810.60;760.90;;;5.20;99.90;;;;;;4977182;28;20549;-74
2023/12/27 05:23:56;;;;;;;805.03;756.03;;;5.30;99.90;;;;;;4974669;28;20456;-74
2023/12/27 05:26:23;;;;;;;797.40;749.50;;;5.30;99.90;;;;;;4976041;28;20465;-74
2023/12/27 05:28:50;;;;;;;774.17;727.17;;;5.30;99.90;;;;;;4977053;28;20473;-74
2023/12/27 05:31:16;;;;;;;762.70;716.70;;;5.30;99.90;;;;;;4976798;28;20483;-74
2023/12/27 05:33:46;;;;;;;735.40;690.90;;;5.40;99.90;;;;;;4974888;28;20455;-74
2023/12/27 05:36:13;;;;;;;726.63;683.60;;;5.40;99.90;;;;;;4975701;28;20877;-74
2023/12/27 05:38:40;;;;;;;691.97;650.70;;;5.40;99.90;;;;;;4976820;28;20475;-74
2023/12/27 05:41:06;;;;;;;717.40;675.30;;;5.40;99.90;;;;;;4977032;28;20491;-74
2023/12/27 05:43:33;;;;;;;700.13;658.60;;;5.40;99.90;;;;;;4974963;28;20452;-74
2023/12/27 05:46:00;;;;;;;702.70;661.57;;;5.40;99.90;;;;;;4975174;28;20464;-74
2023/12/27 05:48:27;;;;;;;676.87;637.93;;;5.50;99.90;;;;;;4976768;28;20477;-74
2023/12/27 05:50:56;;;;;;;634.80;598.73;;;5.50;99.90;;;;;;4977218;28;20851;-74
2023/12/27 05:53:22;;;;;;;622.27;587.07;;;5.60;99.90;;;;;;4974782;28;20464;-74
2023/12/27 05:55:49;;;;;;;631.67;595.60;;;5.60;99.90;;;;;;4974781;28;20454;-74
2023/12/27 05:58:16;;;;;;;610.77;575.50;;;5.60;99.90;;;;;;4976282;28;20849;-74
2023/12/27 06:00:43;;;;;;;593.97;560.67;;;5.60;99.90;;;;;;4976155;28;20544;-74
2023/12/27 06:03:10;;;;;;;578.83;546.87;;;5.70;99.90;;;;;;4974535;28;20465;-76
2023/12/27 06:05:37;;;;;;;573.30;541.40;;;5.70;99.90;;;;;;4974546;28;20849;-75
2023/12/27 06:08:06;;;;;;;570.13;540.00;;;5.70;99.90;;;;;;4976045;28;20524;-74
2023/12/27 06:10:33;;;;;;;562.43;532.30;;;5.70;99.90;;;;;;4976322;28;20451;-74
2023/12/27 06:12:59;;;;;;;557.57;527.83;;;5.80;99.90;;;;;;4974794;28;20456;-74
2023/12/27 06:15:26;;;;;;;534.63;505.80;;;5.80;99.90;;;;;;4973950;28;20460;-74
2023/12/27 06:17:53;;;;;;;508.57;481.30;;;5.80;99.90;;;;;;4976069;28;20568;-74
2023/12/27 06:20:20;;;;;;;509.50;482.00;;;5.80;99.90;;;;;;4976140;28;20460;-74
2023/12/27 06:22:47;;;;;;;521.37;492.77;;;5.80;99.90;;;;;;4974623;28;20458;-74
2023/12/27 06:25:15;;;;;;;496.00;469.43;;;5.90;99.90;;;;;;4973359;28;20453;-74
2023/12/27 06:27:42;;;;;;;479.83;454.50;;;5.90;99.90;;;;;;4975677;28;20460;-75
2023/12/27 06:30:10;;;;;;;460.17;436.37;;;5.90;99.90;;;;;;4975655;28;20457;-74
2023/12/27 06:32:37;;;;;;;448.00;424.70;;;5.90;99.90;;;;;;4975092;28;20813;-74
2023/12/27 06:35:04;;;;;;;439.67;416.70;;;6.00;99.90;;;;;;4973230;28;20461;-74
2023/12/27 06:37:31;;;;;;;421.53;398.80;;;6.00;99.90;;;;;;4975392;28;20461;-74
2023/12/27 06:39:58;;;;;;;431.27;409.47;;;6.00;99.90;;;;;;4975705;28;20456;-74
2023/12/27 06:42:26;;;;;;;425.93;403.93;;;6.00;99.90;;;;;;4974846;28;20453;-75
2023/12/27 06:44:54;;;;;;;422.27;400.47;;;6.00;99.90;;;;;;4973047;28;20456;-74
2023/12/27 06:47:20;;;;;;;426.43;404.37;;;6.10;99.90;;;;;;4975676;28;20508;-74
2023/12/27 06:49:47;;;;;;;423.50;401.77;;;6.10;99.90;;;;;;4975576;28;20458;-74
2023/12/27 06:52:14;;;;;;;423.17;401.07;;;6.10;99.90;;;;;;4974844;28;20458;-74
2023/12/27 06:54:41;;;;;;;421.73;399.93;;;6.10;99.90;;;;;;4972804;28;20827;-74
2023/12/27 06:57:08;;;;;;;421.67;400.10;;;6.20;99.90;;;;;;4975195;28;20839;-74
2023/12/27 06:59:36;;;;;;;415.93;395.50;;;6.20;99.90;;;;;;4975484;28;20470;-74
2023/12/27 07:02:04;;;;;;;423.87;402.20;;;6.20;99.90;;;;;;4974895;28;20458;-74
2023/12/27 07:04:31;;;;;;;427.77;406.30;;;6.20;99.90;;;;;;4972632;28;20462;-74
2023/12/27 07:06:58;;;;;;;431.77;409.70;;;6.30;99.90;;;;;;4975123;28;20454;-75
2023/12/27 07:09:25;;;;;;;427.03;405.33;;;6.30;99.90;;;;;;4974965;28;20449;-75
2023/12/27 07:11:51;;;;;;;440.90;418.00;;;6.30;99.90;;;;;;4974603;28;20464;-74
2023/12/27 07:14:19;;;;;;;450.37;426.90;;;6.50;99.90;;;;;;4971995;28;20947;-74
2023/12/27 07:16:47;;;;;;;487.07;461.17;;;6.40;99.90;;;;;;4974534;28;20454;-74
2023/12/27 07:19:14;;;;;;;537.60;507.23;;;6.30;99.90;;;;;;4975069;28;20478;-74
2023/12/27 07:21:41;;;;;;;572.83;539.90;;;6.30;99.90;;;;;;4974889;28;20461;-75
2023/12/27 07:24:08;;;;;;;599.43;563.83;;;6.30;99.90;;;;;;4972702;28;20876;-75
2023/12/27 07:26:35;;;;;;;628.27;591.27;;;6.30;99.90;;;;;;4974543;28;20463;-75
2023/12/27 07:29:02;;;;;;;640.63;600.87;;;6.40;99.90;;;;;;4975202;28;20454;-75
2023/12/27 07:31:28;;;;;;;660.07;620.07;;;6.40;99.90;;;;;;4974603;28;20943;-75
2023/12/27 07:33:57;;;;;;;659.33;618.13;;;6.40;99.90;;;;;;4972367;28;20457;-75
2023/12/27 07:36:23;;;;;;;644.77;603.97;;;6.40;99.90;;;;;;4973578;28;20452;-75
2023/12/27 07:38:50;;;;;;;653.30;613.37;;;6.40;99.90;;;;;;4974608;28;20490;-75
2023/12/27 07:41:17;;;;;;;650.17;609.73;;;6.40;99.90;;;;;;4974889;28;20553;-75
2023/12/27 07:43:46;;;;;;;647.63;606.47;;;6.40;99.90;;;;;;4972019;28;20454;-75
2023/12/27 07:46:13;;;;;;;646.77;605.47;;;6.50;99.90;;;;;;4973081;28;20464;-75
2023/12/27 07:48:40;;;;;;;651.90;612.27;;;6.50;99.90;;;;;;4974886;28;20810;-75
2023/12/27 07:51:08;;;;;;;631.33;592.33;;;6.50;99.90;;;;;;4974842;28;20480;-75
2023/12/27 07:53:35;;;;;;;605.13;566.73;;;6.50;99.90;;;;;;4971893;28;20468;-75
2023/12/27 07:56:02;;;;;;;600.00;562.87;;;6.50;99.90;;;;;;4973035;28;20466;-75
2023/12/27 07:58:29;;;;;;;572.60;535.67;;;6.60;99.90;;;;;;4974565;28;20842;-75
2023/12/27 08:00:56;;;;;;;574.03;538.20;;;6.60;99.90;;;;;;4974465;28;20461;-75
2023/12/27 08:03:23;;;;;;;573.60;537.70;;;6.60;99.90;;;;;;4971849;28;20961;-74
2023/12/27 08:05:51;;;;;;;598.23;560.07;;;6.70;99.90;;;;;;4972478;28;20451;-77
2023/12/27 08:08:19;;;;;;;595.80;560.00;;;6.70;99.90;;;;;;4974377;28;20457;-77
2023/12/27 08:10:46;;;;;;;582.53;546.13;;;6.70;99.90;;;;;;4974326;28;20454;-76
2023/12/27 08:13:13;;;;;;;587.43;550.97;;;6.70;99.90;;;;;;4972995;28;20460;-77
2023/12/27 08:15:40;;;;;;;580.97;544.80;;;6.80;99.90;;;;;;4972236;28;20455;-77
2023/12/27 08:18:07;;;;;;;587.27;551.57;;;6.80;99.90;;;;;;4974246;28;20474;-76
2023/12/27 08:20:36;;;;;;;583.60;548.00;;;6.90;99.90;;;;;;4974557;28;20461;-77
2023/12/27 08:23:03;;;;;;;590.63;556.03;;;6.90;99.90;;;;;;4973214;28;20451;-76
2023/12/27 08:25:31;;;;;;;601.97;566.73;;;6.90;99.90;;;;;;4972673;28;20542;-77
2023/12/27 08:27:57;;;;;;;590.17;555.10;;;7.00;99.90;;;;;;4974499;28;20548;-76
2023/12/27 08:30:24;;;;;;;585.23;551.33;;;7.10;99.90;;;;;;4974174;28;20494;-77
2023/12/27 08:32:51;;;;;;;592.10;558.20;;;7.00;99.90;;;;;;4973057;28;20211;-77
2023/12/27 08:35:18;;;;;;;583.03;549.23;;;7.10;99.90;;;;;;4972576;28;20457;-77
2023/12/27 08:37:45;;;;;;;583.97;550.37;;;7.10;99.90;;;;;;4974046;28;20456;-77
2023/12/27 08:40:12;;;;;;;572.93;539.10;;;7.20;99.90;;;;;;4974024;28;20481;-77
2023/12/27 08:42:40;;;;;;;567.07;533.10;;;7.20;99.90;;;;;;4973104;28;20453;-76
2023/12/27 08:45:08;;;;;;;564.50;531.20;;;7.20;99.90;;;;;;4972123;28;20458;-76
2023/12/27 08:47:36;;;;;;;527.22;495.50;;;7.30;99.90;;;;;;4973071;28;20549;-77
2023/12/27 08:50:03;;;;;;;502.90;475.57;;;7.40;99.90;;;;;;4977703;28;20230;-77
2023/12/27 08:52:30;;;;;;;499.33;472.43;;;7.40;99.90;;;;;;4976768;28;20458;-77
2023/12/27 08:54:58;;;;;;;488.63;462.00;;;7.50;99.90;;;;;;4975144;28;20461;-77
2023/12/27 08:57:25;;;;;;;480.63;455.20;;;7.50;99.90;;;;;;4977501;28;20470;-77
2023/12/27 08:59:53;;;;;;;458.03;433.80;;;7.60;99.90;;;;;;4977538;28;20492;-77
2023/12/27 09:02:20;;;;;;;449.07;424.77;;;7.60;99.90;;;;;;4976837;28;20454;-76
2023/12/27 09:04:46;;;;;;;440.70;418.00;;;7.60;99.90;;;;;;4975129;28;20450;-77
2023/12/27 09:07:13;;;;;;;447.77;424.47;;;7.70;99.90;;;;;;4977171;28;20469;-77
2023/12/27 09:09:40;;;;;;;447.70;424.23;;;7.70;99.90;;;;;;4977417;28;20813;-77
2023/12/27 09:12:08;;;;;;;444.07;421.57;;;7.80;99.90;;;;;;4976435;28;20457;-77
2023/12/27 09:14:38;;;;;;;431.83;409.77;;;7.80;99.90;;;;;;4975019;28;20454;-77
2023/12/27 09:17:06;;;;;;;418.70;396.97;;;7.90;99.90;;;;;;4976982;28;20915;-77
2023/12/27 09:19:33;;;;;;;407.30;386.87;;;8.00;99.90;;;;;;4977206;28;20569;-77
2023/12/27 09:22:01;;;;;;;386.93;367.87;;;8.00;99.90;;;;;;4976398;28;20829;-77
2023/12/27 09:24:28;;;;;;;397.03;377.80;;;8.10;99.90;;;;;;4974873;28;20802;-77
2023/12/27 09:26:54;;;;;;;389.80;370.63;;;8.10;99.90;;;;;;4976919;28;20450;-77
2023/12/27 09:29:21;;;;;;;384.07;365.77;;;8.10;99.90;;;;;;4976794;28;20451;-77
2023/12/27 09:31:48;;;;;;;384.20;365.70;;;8.20;99.90;;;;;;4976741;28;20839;-77
2023/12/27 09:34:16;;;;;;;388.20;369.50;;;8.20;99.90;;;;;;4974454;28;20466;-77
2023/12/27 09:36:43;;;;;;;388.17;368.70;;;8.20;99.90;;;;;;4976246;28;20473;-77
2023/12/27 09:39:11;;;;;;;376.20;358.40;;;8.30;99.90;;;;;;4976559;28;20573;-77
2023/12/27 09:41:38;;;;;;;373.00;355.13;;;8.30;99.90;;;;;;4976406;28;20455;-77
2023/12/27 09:44:07;;;;;;;359.63;342.40;;;8.30;99.90;;;;;;4974753;28;20469;-77
2023/12/27 09:46:36;;;;;;;360.83;343.43;;;8.30;99.90;;;;;;4976348;28;20819;-77
2023/12/27 09:49:03;;;;;;;369.27;351.80;;;8.30;99.90;;;;;;4976737;28;20447;-77
2023/12/27 09:51:32;;;;;;;366.87;349.70;;;8.30;99.90;;;;;;4976666;28;20452;-77
2023/12/27 09:53:59;;;;;;;364.97;347.57;;;8.30;99.90;;;;;;4974327;28;20505;-77
2023/12/27 09:56:28;;;;;;;371.90;354.57;;;8.40;99.90;;;;;;4975998;28;20458;-77
2023/12/27 09:58:58;;;;;;;366.37;349.17;;;8.40;99.90;;;;;;4976102;28;20485;-77
2023/12/27 10:01:26;;;;;;;367.03;350.07;;;8.40;99.90;;;;;;4975981;28;20793;-77
2023/12/27 10:04:00;;;;;;;373.93;356.43;;;8.50;99.90;;;;;;4974145;28;20970;-77
2023/12/27 10:06:36;;;;;;;374.50;357.30;;;8.50;99.90;;;;;;4975864;28;20522;-77
2023/12/27 10:09:05;;;;;;;352.97;336.77;;;8.60;99.90;;;;;;4976356;28;20435;-77
2023/12/27 10:11:32;;;;;;;344.40;328.70;;;8.60;99.90;;;;;;4975882;28;20473;-77
2023/12/27 10:13:59;;;;;;;345.30;329.40;;;8.60;99.90;;;;;;4973765;28;20461;-76
2023/12/27 10:16:26;;;;;;;342.60;327.00;;;8.60;99.90;;;;;;4975499;28;20461;-76
2023/12/27 10:18:53;;;;;;;353.60;337.43;;;8.60;99.90;;;;;;4976327;28;20478;-77
2023/12/27 10:21:20;;;;;;;339.53;323.77;;;8.60;99.90;;;;;;4976136;28;20455;-77
2023/12/27 10:23:48;;;;;;;342.07;326.27;;;8.60;99.90;;;;;;4974055;28;20455;-76
2023/12/27 10:26:16;;;;;;;347.90;331.97;;;8.70;99.90;;;;;;4974713;28;20490;-77
2023/12/27 10:28:44;;;;;;;344.03;328.33;;;8.70;99.90;;;;;;4975689;28;20951;-77
2023/12/27 10:31:12;;;;;;;345.97;330.27;;;8.70;99.90;;;;;;4975972;28;20474;-77
2023/12/27 10:33:42;;;;;;;332.07;316.97;;;8.80;99.90;;;;;;4973922;28;20823;-77
2023/12/27 10:36:10;;;;;;;342.10;326.80;;;8.80;99.90;;;;;;4973936;28;20455;-75
2023/12/27 10:38:38;;;;;;;338.30;323.50;;;8.90;99.90;;;;;;4975909;28;20463;-75
2023/12/27 10:41:07;;;;;;;329.37;315.00;;;9.00;99.90;;;;;;4975437;28;20466;-74
2023/12/27 10:43:35;;;;;;;318.00;304.60;;;9.10;99.90;;;;;;4974708;28;20514;-75
2023/12/27 10:46:08;;;;;;;302.30;289.53;;;9.20;99.90;;;;;;4974826;28;20484;-75
2023/12/27 10:48:40;;;;;;;298.90;286.40;;;9.20;99.90;;;;;;4975718;28;20809;-75
2023/12/27 10:51:08;;;;;;;290.90;279.00;;;9.20;99.90;;;;;;4975639;28;20443;-75
2023/12/27 10:53:35;;;;;;;302.25;289.65;;;9.20;99.90;;;;;;4973398;28;20481;-75
2023/12/27 10:56:03;;;;;;;257.43;247.40;;;9.30;99.90;;;;;;4974702;28;20207;-75
2023/12/27 10:58:31;;;;;;;302.10;289.83;;;9.40;99.90;;;;;;4973723;28;20465;-74
2023/12/27 11:01:00;;;;;;;241.60;232.70;;;9.40;99.90;;;;;;4975269;28;20849;-74
2023/12/27 11:03:29;;;;;;;229.17;220.97;;;9.50;99.90;;;;;;4973701;28;20455;-74
2023/12/27 11:05:57;;;;;;;223.40;215.30;;;9.50;99.90;;;;;;4973429;28;20481;-80
2023/12/27 11:08:25;;;;;;;219.23;211.30;;;9.60;99.90;;;;;;4974984;28;20459;-80
2023/12/27 11:10:52;;;;;;;221.10;213.30;;;9.60;99.90;;;;;;4975188;28;20451;-80
2023/12/27 11:13:24;;;;;;;214.30;206.70;;;9.60;99.90;;;;;;4972815;28;20828;-80
2023/12/27 11:15:53;;;;;;;212.90;205.30;;;9.60;99.90;;;;;;4973641;28;20458;-81
2023/12/27 11:18:23;;;;;;;207.23;199.47;;;9.60;99.90;;;;;;4974885;28;20457;-81
2023/12/27 11:20:51;;;;;;;261.67;249.40;;;9.60;99.90;;;;;;4975029;28;20479;-81
2023/12/27 11:23:18;;;;;;;195.83;188.90;;;9.60;99.90;;;;;;4973342;28;20465;-81
2023/12/27 11:25:46;;;;;;;165.97;160.13;;;9.60;99.90;;;;;;4973357;28;20450;-81
2023/12/27 11:28:13;;;;;;;144.70;139.63;;;9.70;99.90;;;;;;4975087;28;20457;-81
2023/12/27 11:30:40;;;;;;;104.63;100.83;;;9.80;99.90;;;;;;4975057;28;20457;-81
2023/12/27 11:33:07;;;;;;;70.80;68.17;;;9.80;99.90;;;;;;4973745;28;20450;-82
2023/12/27 11:35:36;;;;;;;64.17;61.67;;;9.90;99.90;;;;;;4973126;28;20476;-82
2023/12/27 11:38:18;;;;;;;34.60;32.83;;;10.00;99.90;;;;;;4974689;28;20466;-82
2023/12/27 11:40:45;;;;;;;29.10;27.90;;;10.00;99.90;;;;;;4974577;28;20489;-81
2023/12/27 11:43:19;;;;;;;22.73;21.50;;;10.10;99.90;;;;;;4973514;28;20454;-82
2023/12/27 11:46:02;;;;;;;19.60;18.50;;;10.20;99.90;;;;;;4973740;28;20454;-82
2023/12/27 11:48:33;;;;;;;22.23;21.23;;;10.20;99.90;;;;;;4974566;28;20959;-82
2023/12/27 11:51:02;;;;;;;15.27;14.43;;;10.20;99.90;;;;;;4974925;28;20463;-82
2023/12/27 11:53:30;;;;;;;10.30;9.43;;;10.20;99.90;;;;;;4972877;28;20462;-81
2023/12/27 11:55:59;;;;;;;11.87;10.97;;;10.30;99.90;;;;;;4973168;28;20490;-82
2023/12/27 11:58:31;;;;;;;10.40;9.80;;;10.20;99.90;;;;;;4974940;28;20896;-81
2023/12/27 12:01:19;;;;;;;9.00;7.60;;;10.20;99.90;;;;;;4974367;28;20482;-82
2023/12/27 12:03:53;;;;;;;7.43;6.77;;;10.30;99.90;;;;;;4971467;28;20465;-81
2023/12/27 12:06:39;;;;;;;7.50;6.80;;;10.20;99.90;;;;;;4973516;28;20461;-81
2023/12/27 12:09:07;;;;;;;6.90;6.40;;;10.30;99.90;;;;;;4974731;28;20525;-82
2023/12/27 12:11:35;;;;;;;9.40;8.80;;;10.30;99.90;;;;;;4974401;28;20455;-82
2023/12/27 12:14:02;;;;;;;8.33;7.53;;;10.30;99.90;;;;;;4971801;28;20467;-82
2023/12/27 12:16:32;;;;;;;6.33;5.73;;;10.30;99.40;;;;;;4973535;28;20451;-82
2023/12/27 12:18:59;;;;;;;9.20;8.50;;;10.40;99.30;;;;;;4974555;28;20462;-82
2023/12/27 12:21:29;;;;;;;8.60;5.17;;;10.40;98.10;;;;;;4974623;28;20442;-82